createdAt,value
2024-04-24T00:02:04.849Z,3.00
2024-04-24T00:04:31.211Z,2.40
2024-04-24T00:06:57.536Z,2.60
2024-04-24T00:09:23.850Z,4.20
2024-04-24T00:11:50.382Z,4.00
2024-04-24T00:14:16.990Z,1.90
2024-04-24T00:16:43.347Z,3.90
2024-04-24T00:19:09.743Z,3.10
2024-04-24T00:21:36.110Z,2.50
2024-04-24T00:24:02.448Z,2.80
2024-04-24T00:26:29.049Z,2.90
2024-04-24T00:28:55.363Z,2.60
2024-04-24T00:31:21.763Z,3.10
2024-04-24T00:33:48.334Z,2.20
2024-04-24T00:36:14.834Z,5.30
2024-04-24T00:38:41.176Z,3.10
2024-04-24T00:41:07.563Z,3.70
2024-04-24T00:43:33.905Z,2.50
2024-04-24T00:46:01.183Z,3.30
2024-04-24T00:48:28.242Z,3.00
2024-04-24T00:50:56.009Z,2.40
2024-04-24T00:53:22.416Z,2.80
2024-04-24T00:55:49.008Z,4.00
2024-04-24T00:58:17.592Z,4.60
2024-04-24T01:00:44.597Z,2.80
2024-04-24T01:03:12.108Z,3.80
2024-04-24T01:08:05.274Z,2.30
2024-04-24T01:10:31.771Z,2.80
2024-04-24T01:12:58.067Z,3.10
2024-04-24T01:15:24.947Z,3.20
2024-04-24T01:17:55.538Z,3.70
2024-04-24T01:20:27.861Z,2.10
2024-04-24T01:23:00.040Z,2.40
2024-04-24T01:25:38.019Z,3.80
2024-04-24T01:28:04.624Z,3.30
2024-04-24T01:30:31.008Z,2.70
2024-04-24T01:32:57.571Z,2.50
2024-04-24T01:35:24.147Z,3.10
2024-04-24T01:37:50.589Z,3.60
2024-04-24T01:40:17.256Z,2.50
2024-04-24T01:42:43.591Z,3.40
2024-04-24T01:45:09.863Z,3.90
2024-04-24T01:47:36.321Z,2.60
2024-04-24T01:50:02.932Z,3.00
2024-04-24T01:52:32.465Z,2.90
2024-04-24T01:54:58.784Z,3.30
2024-04-24T01:57:25.103Z,4.00
2024-04-24T01:59:51.487Z,5.20
2024-04-24T02:02:17.960Z,3.50
2024-04-24T02:04:44.483Z,2.90
2024-04-24T02:07:10.785Z,2.20
2024-04-24T02:09:37.100Z,2.20
2024-04-24T02:12:10.377Z,2.20
2024-04-24T02:14:42.276Z,1.90
2024-04-24T02:17:08.753Z,2.90
2024-04-24T02:19:35.258Z,2.10
2024-04-24T02:22:01.645Z,3.30
2024-04-24T02:24:46.812Z,2.40
2024-04-24T02:27:13.162Z,2.40
2024-04-24T02:29:48.241Z,2.70
2024-04-24T02:32:21.135Z,3.00
2024-04-24T02:34:47.836Z,3.10
2024-04-24T02:37:14.165Z,2.20
2024-04-24T02:39:40.484Z,3.40
2024-04-24T02:42:07.685Z,2.30
2024-04-24T02:44:33.992Z,6.20
2024-04-24T02:47:00.355Z,3.40
2024-04-24T02:49:26.815Z,3.50
2024-04-24T02:51:53.119Z,3.30
2024-04-24T02:54:19.545Z,3.10
2024-04-24T02:56:45.860Z,3.00
2024-04-24T02:59:12.341Z,2.30
2024-04-24T03:01:38.713Z,3.20
2024-04-24T03:04:05.088Z,3.90
2024-04-24T03:06:31.377Z,2.50
2024-04-24T03:08:57.673Z,4.60
2024-04-24T03:11:24.126Z,4.90
2024-04-24T03:13:50.646Z,2.20
2024-04-24T03:16:16.955Z,3.20
2024-04-24T03:18:44.060Z,4.20
2024-04-24T03:21:10.390Z,4.60
2024-04-24T03:23:38.087Z,4.10
2024-04-24T03:28:32.853Z,3.90
2024-04-24T03:30:59.167Z,3.40
2024-04-24T03:33:25.521Z,3.00
2024-04-24T03:35:51.873Z,2.10
2024-04-24T03:38:18.240Z,2.70
2024-04-24T03:40:45.207Z,3.60
2024-04-24T03:43:11.540Z,3.50
2024-04-24T03:45:37.895Z,3.10
2024-04-24T03:48:05.417Z,2.50
2024-04-24T03:50:31.912Z,2.20
2024-04-24T03:52:58.249Z,3.20
2024-04-24T03:55:24.941Z,5.40
2024-04-24T03:57:51.530Z,3.50
2024-04-24T04:00:17.916Z,4.60
2024-04-24T04:02:44.647Z,4.30
2024-04-24T04:05:11.174Z,3.60
2024-04-24T04:07:37.502Z,4.60
2024-04-24T04:10:04.208Z,3.30
2024-04-24T04:12:30.540Z,4.10
2024-04-24T04:14:56.814Z,4.00
2024-04-24T04:17:23.230Z,2.60
2024-04-24T04:19:49.706Z,2.90
2024-04-24T04:22:16.148Z,2.60
2024-04-24T04:24:42.908Z,3.00
2024-04-24T04:27:09.213Z,4.70
2024-04-24T04:29:35.500Z,4.00
2024-04-24T04:32:01.948Z,3.60
2024-04-24T04:34:28.353Z,4.40
2024-04-24T04:36:54.657Z,5.60
2024-04-24T04:39:21.129Z,3.10
2024-04-24T04:41:47.405Z,4.50
2024-04-24T04:44:13.827Z,6.60
2024-04-24T04:46:40.802Z,4.60
2024-04-24T04:49:07.234Z,4.10
2024-04-24T04:51:33.512Z,2.70
2024-04-24T04:53:59.839Z,3.80
2024-04-24T04:56:27.310Z,3.30
2024-04-24T04:58:53.746Z,3.90
2024-04-24T05:01:20.062Z,3.00
2024-04-24T05:03:46.481Z,3.80
2024-04-24T05:06:13.673Z,2.50
2024-04-24T05:08:40.041Z,3.20
2024-04-24T05:11:06.436Z,6.40
2024-04-24T05:13:32.857Z,2.90
2024-04-24T05:15:59.143Z,3.70
2024-04-24T05:18:25.895Z,3.90
2024-04-24T05:20:52.482Z,3.60
2024-04-24T05:23:19.013Z,5.00
2024-04-24T05:25:53.148Z,3.50
2024-04-24T05:28:38.515Z,3.60
2024-04-24T05:31:04.823Z,3.10
2024-04-24T05:33:31.524Z,4.50
2024-04-24T05:35:58.079Z,3.60
2024-04-24T05:38:24.716Z,4.00
2024-04-24T05:40:51.231Z,8.70
2024-04-24T05:43:18.125Z,5.10
2024-04-24T05:45:44.421Z,3.90
2024-04-24T05:48:10.925Z,4.70
2024-04-24T05:50:37.397Z,5.60
2024-04-24T05:53:03.928Z,5.20
2024-04-24T05:55:30.252Z,4.20
2024-04-24T05:57:56.631Z,3.70
2024-04-24T06:00:22.925Z,4.90
2024-04-24T06:02:49.358Z,3.00
2024-04-24T06:05:15.670Z,5.30
2024-04-24T06:07:42.489Z,3.70
2024-04-24T06:10:08.889Z,6.20
2024-04-24T06:12:35.218Z,5.80
2024-04-24T06:15:01.560Z,7.70
2024-04-24T06:17:28.079Z,3.50
2024-04-24T06:19:56.087Z,3.80
2024-04-24T06:22:22.434Z,3.40
2024-04-24T06:24:49.338Z,7.50
2024-04-24T06:27:15.751Z,7.20
2024-04-24T06:29:42.163Z,4.40
2024-04-24T06:32:08.571Z,4.00
2024-04-24T06:34:35.040Z,6.30
2024-04-24T06:37:01.401Z,6.70
2024-04-24T06:39:27.664Z,5.30
2024-04-24T06:41:53.947Z,4.90
2024-04-24T06:44:20.311Z,6.10
2024-04-24T06:46:46.609Z,4.40
2024-04-24T06:49:12.914Z,5.10
2024-04-24T06:51:39.278Z,7.20
2024-04-24T06:54:05.614Z,5.00
2024-04-24T06:56:31.964Z,5.00
2024-04-24T06:58:58.314Z,6.20
2024-04-24T07:01:24.703Z,4.50
2024-04-24T07:03:51.032Z,5.50
2024-04-24T07:06:17.509Z,7.10
2024-04-24T07:08:43.920Z,5.60
2024-04-24T07:11:10.315Z,7.00
2024-04-24T07:13:36.884Z,8.30
2024-04-24T07:16:03.416Z,6.60
2024-04-24T07:18:29.951Z,5.60
2024-04-24T07:20:57.009Z,6.90
2024-04-24T07:23:23.511Z,5.00
2024-04-24T07:25:50.021Z,6.20
2024-04-24T07:28:16.517Z,5.20
2024-04-24T07:30:43.046Z,7.90
2024-04-24T07:33:09.432Z,5.20
2024-04-24T07:35:35.919Z,6.70
2024-04-24T07:38:02.441Z,6.10
2024-04-24T07:40:28.916Z,7.10
2024-04-24T07:42:55.704Z,9.20
2024-04-24T07:45:22.019Z,5.80
2024-04-24T07:47:48.539Z,6.70
2024-04-24T07:50:15.239Z,4.50
2024-04-24T07:52:41.768Z,5.70
2024-04-24T07:55:08.201Z,6.40
2024-04-24T07:57:34.683Z,6.70
2024-04-24T08:00:01.144Z,7.60
2024-04-24T08:02:28.462Z,9.10
2024-04-24T08:04:55.191Z,7.10
2024-04-24T08:07:21.681Z,9.00
2024-04-24T08:09:47.995Z,4.60
2024-04-24T08:12:26.803Z,7.70
2024-04-24T08:14:53.729Z,6.70
2024-04-24T08:17:21.268Z,5.80
2024-04-24T08:19:48.726Z,7.90
2024-04-24T08:22:15.059Z,6.00
2024-04-24T08:24:41.582Z,5.60
2024-04-24T08:27:07.894Z,4.80
2024-04-24T08:29:34.379Z,7.00
2024-04-24T08:32:00.807Z,7.50
2024-04-24T08:34:27.201Z,7.90
2024-04-24T08:36:53.522Z,6.20
2024-04-24T08:39:19.836Z,7.20
2024-04-24T08:41:46.938Z,7.50
2024-04-24T08:44:13.933Z,7.30
2024-04-24T08:46:43.119Z,8.20
2024-04-24T08:49:10.953Z,5.90
2024-04-24T08:51:42.490Z,10.00
2024-04-24T08:54:14.365Z,6.60
2024-04-24T08:56:45.146Z,6.70
2024-04-24T08:59:23.668Z,6.50
2024-04-24T09:02:10.188Z,6.10
2024-04-24T09:04:41.532Z,5.10
2024-04-24T09:07:08.774Z,7.70
2024-04-24T09:09:35.592Z,7.30
2024-04-24T09:12:04.814Z,5.50
2024-04-24T09:14:33.363Z,5.30
2024-04-24T09:17:01.548Z,7.30
2024-04-24T09:19:28.516Z,6.10
2024-04-24T09:21:54.922Z,6.40
2024-04-24T09:24:21.853Z,6.60
2024-04-24T09:26:49.178Z,6.30
2024-04-24T09:29:16.141Z,7.40
2024-04-24T09:31:44.557Z,5.50
2024-04-24T09:34:11.582Z,6.40
2024-04-24T09:36:38.537Z,7.50
2024-04-24T09:39:08.186Z,6.10
2024-04-24T09:41:35.459Z,5.60
2024-04-24T09:44:02.544Z,3.40
2024-04-24T09:46:32.289Z,5.10
2024-04-24T09:49:00.139Z,5.00
2024-04-24T09:51:26.579Z,6.30
2024-04-24T09:53:52.930Z,5.20
2024-04-24T09:56:24.118Z,5.80
2024-04-24T09:58:53.320Z,5.90
2024-04-24T10:01:23.574Z,5.50
2024-04-24T10:03:55.313Z,4.30
2024-04-24T10:06:23.162Z,5.70
2024-04-24T10:08:54.033Z,5.30
2024-04-24T10:11:24.867Z,7.10
2024-04-24T10:13:51.649Z,6.00
2024-04-24T10:16:18.800Z,6.20
2024-04-24T10:18:46.404Z,6.70
2024-04-24T10:21:13.864Z,5.40
2024-04-24T10:23:42.333Z,6.10
2024-04-24T10:26:09.957Z,5.40
2024-04-24T10:28:38.119Z,6.20
2024-04-24T10:31:04.699Z,5.50
2024-04-24T10:33:32.329Z,5.20
2024-04-24T10:35:58.856Z,4.80
2024-04-24T10:38:27.288Z,7.10
2024-04-24T10:40:55.119Z,5.40
2024-04-24T10:43:23.943Z,6.20
2024-04-24T10:45:56.794Z,6.60
2024-04-24T10:48:23.243Z,6.80
2024-04-24T10:50:51.481Z,4.90
2024-04-24T10:53:19.237Z,4.90
2024-04-24T10:55:54.674Z,4.90
2024-04-24T10:58:21.521Z,6.10
2024-04-24T11:00:48.344Z,5.60
2024-04-24T11:03:14.768Z,6.00
2024-04-24T11:05:43.265Z,6.00
2024-04-24T11:08:20.159Z,4.40
2024-04-24T11:10:54.322Z,4.00
2024-04-24T11:13:20.842Z,5.40
2024-04-24T11:15:54.649Z,4.70
2024-04-24T11:18:28.596Z,5.20
2024-04-24T11:20:55.383Z,4.20
2024-04-24T11:23:22.072Z,3.40
2024-04-24T11:25:58.795Z,3.80
2024-04-24T11:28:26.907Z,6.00
2024-04-24T11:30:53.296Z,4.10
2024-04-24T11:33:20.718Z,4.10
2024-04-24T11:35:47.707Z,4.10
2024-04-24T11:38:14.192Z,4.50
2024-04-24T11:40:42.429Z,4.10
2024-04-24T11:43:09.452Z,3.30
2024-04-24T11:45:35.848Z,4.60
2024-04-24T11:48:04.383Z,4.70
2024-04-24T11:50:31.225Z,3.90
2024-04-24T11:53:00.992Z,5.10
2024-04-24T11:55:27.488Z,4.90
2024-04-24T11:57:53.793Z,4.10
2024-04-24T12:00:20.100Z,4.50
2024-04-24T12:02:46.525Z,4.00
2024-04-24T12:05:13.062Z,7.40
2024-04-24T12:07:46.473Z,5.80
2024-04-24T12:10:13.334Z,5.80
2024-04-24T12:12:42.812Z,4.40
2024-04-24T12:15:14.816Z,4.80
2024-04-24T12:17:41.518Z,4.30
2024-04-24T12:20:08.760Z,3.90
2024-04-24T12:22:35.133Z,4.40
2024-04-24T12:25:01.528Z,4.70
2024-04-24T12:27:27.861Z,5.60
2024-04-24T12:29:54.667Z,4.40
2024-04-24T12:32:21.036Z,5.00
2024-04-24T12:34:47.394Z,4.30
2024-04-24T12:37:13.705Z,4.30
2024-04-24T12:39:39.974Z,2.40
2024-04-24T12:42:06.469Z,1.20
2024-04-24T12:44:34.143Z,1.10
2024-04-24T12:47:00.667Z,1.10
2024-04-24T12:49:27.060Z,1.40
2024-04-24T12:51:54.976Z,1.10
2024-04-24T12:54:21.286Z,1.00
2024-04-24T12:56:48.876Z,1.90
2024-04-24T12:59:15.226Z,0.90
2024-04-24T13:01:41.842Z,0.80
2024-04-24T13:04:08.788Z,1.10
2024-04-24T13:06:37.204Z,0.60
2024-04-24T13:09:03.676Z,2.70
2024-04-24T13:11:30.721Z,1.80
2024-04-24T13:13:57.229Z,1.90
2024-04-24T13:16:24.331Z,2.80
2024-04-24T13:18:50.874Z,1.60
2024-04-24T13:21:19.468Z,1.70
2024-04-24T13:23:45.998Z,1.80
2024-04-24T13:26:12.379Z,3.00
2024-04-24T13:28:38.951Z,3.30
2024-04-24T13:31:07.684Z,2.50
2024-04-24T13:33:34.585Z,2.00
2024-04-24T13:36:01.178Z,1.70
2024-04-24T13:38:27.891Z,3.00
2024-04-24T13:40:54.291Z,2.40
2024-04-24T13:43:20.707Z,1.90
2024-04-24T13:45:47.040Z,2.40
2024-04-24T13:48:13.645Z,3.80
2024-04-24T13:50:40.510Z,2.80
2024-04-24T13:53:09.233Z,4.30
2024-04-24T13:55:35.898Z,2.10
2024-04-24T13:58:02.392Z,2.40
2024-04-24T14:00:30.669Z,1.60
2024-04-24T14:02:57.540Z,1.10
2024-04-24T14:05:24.105Z,1.10
2024-04-24T14:07:50.721Z,1.50
2024-04-24T14:10:17.095Z,1.00
2024-04-24T14:12:46.107Z,1.50
2024-04-24T14:15:18.898Z,2.40
2024-04-24T14:17:46.084Z,1.30
2024-04-24T14:20:12.688Z,1.60
2024-04-24T14:22:39.608Z,1.90
2024-04-24T14:25:07.320Z,1.80
2024-04-24T14:27:33.632Z,1.80
2024-04-24T14:30:00.290Z,1.70
2024-04-24T14:32:26.760Z,3.70
2024-04-24T14:34:53.169Z,2.90
2024-04-24T14:37:19.906Z,1.60
2024-04-24T14:39:46.253Z,1.70
2024-04-24T14:42:12.695Z,1.60
2024-04-24T14:44:39.075Z,1.50
2024-04-24T14:47:05.758Z,1.20
2024-04-24T14:49:32.323Z,1.20
2024-04-24T14:51:58.905Z,1.70
2024-04-24T14:54:25.304Z,2.00
2024-04-24T14:56:51.718Z,1.10
2024-04-24T14:59:18.192Z,0.20
2024-04-24T15:01:44.822Z,3.10
2024-04-24T15:04:11.350Z,0.60
2024-04-24T15:07:00.292Z,1.10
2024-04-24T15:09:26.765Z,0.60
2024-04-24T15:11:53.330Z,1.00
2024-04-24T15:14:20.086Z,1.30
2024-04-24T15:16:46.505Z,0.90
2024-04-24T15:19:12.866Z,1.00
2024-04-24T15:21:40.425Z,1.60
2024-04-24T15:24:07.033Z,1.40
2024-04-24T15:26:33.669Z,0.70
2024-04-24T15:29:00.408Z,0.80
2024-04-24T15:31:27.179Z,0.50
2024-04-24T15:33:54.357Z,0.70
2024-04-24T15:36:21.755Z,0.40
2024-04-24T15:38:48.328Z,0.10
2024-04-24T15:41:15.315Z,0.60
2024-04-24T15:43:42.240Z,0.80
2024-04-24T15:46:09.755Z,0.90
2024-04-24T15:48:37.114Z,0.70
2024-04-24T15:51:04.345Z,0.50
2024-04-24T15:53:31.040Z,0.40
2024-04-24T15:55:57.518Z,1.30
2024-04-24T15:58:24.386Z,0.70
2024-04-24T16:00:51.217Z,0.80
2024-04-24T16:03:17.849Z,0.20
2024-04-24T16:05:45.663Z,0.50
2024-04-24T16:08:12.734Z,0.60
2024-04-24T16:10:39.224Z,1.40
2024-04-24T16:13:05.578Z,0.80
2024-04-24T16:15:32.239Z,0.50
2024-04-24T16:17:58.829Z,1.30
2024-04-24T16:20:25.310Z,3.10
2024-04-24T16:22:53.292Z,1.80
2024-04-24T16:25:19.723Z,1.70
2024-04-24T16:27:46.067Z,1.00
2024-04-24T16:30:12.498Z,0.70
2024-04-24T16:32:39.859Z,1.30
2024-04-24T16:35:06.530Z,1.70
2024-04-24T16:37:32.934Z,0.60
2024-04-24T16:39:59.457Z,0.70
2024-04-24T16:42:25.943Z,0.50
2024-04-24T16:44:52.313Z,1.10
2024-04-24T16:47:18.960Z,2.50
2024-04-24T16:49:45.855Z,0.40
2024-04-24T16:52:13.831Z,0.80
2024-04-24T16:54:40.536Z,0.60
2024-04-24T16:57:10.250Z,1.30
2024-04-24T16:59:36.696Z,1.20
2024-04-24T17:02:03.248Z,1.00
2024-04-24T17:04:29.903Z,0.80
2024-04-24T17:06:56.418Z,1.10
2024-04-24T17:09:22.812Z,2.60
2024-04-24T17:11:49.638Z,1.30
2024-04-24T17:14:16.854Z,0.80
2024-04-24T17:19:13.033Z,0.70
2024-04-24T17:21:39.478Z,1.10
2024-04-24T17:24:21.193Z,1.20
2024-04-24T17:26:48.374Z,0.80
2024-04-24T17:31:42.043Z,0.30
2024-04-24T17:34:08.952Z,0.80
2024-04-24T17:36:35.801Z,0.70
2024-04-24T17:39:02.217Z,1.00
2024-04-24T17:41:28.691Z,1.40
2024-04-24T17:43:55.020Z,0.50
2024-04-24T17:46:21.405Z,1.40
2024-04-24T17:48:47.948Z,0.90
2024-04-24T17:51:14.403Z,0.90
2024-04-24T17:53:41.396Z,1.80
2024-04-24T17:56:08.443Z,0.80
2024-04-24T17:58:34.924Z,1.30
2024-04-24T18:01:01.706Z,2.50
2024-04-24T18:03:30.431Z,2.10
2024-04-24T18:05:57.352Z,0.70
2024-04-24T18:08:23.841Z,0.90
2024-04-24T18:10:50.360Z,0.90
2024-04-24T18:13:16.845Z,1.40
2024-04-24T18:15:45.562Z,1.00
2024-04-24T18:18:17.105Z,1.00
2024-04-24T18:20:44.645Z,1.30
2024-04-24T18:25:38.581Z,1.00
2024-04-24T18:28:05.226Z,2.20
2024-04-24T18:30:31.672Z,1.40
2024-04-24T18:33:03.271Z,1.40
2024-04-24T18:35:30.229Z,1.20
2024-04-24T18:37:56.750Z,1.00
2024-04-24T18:40:23.209Z,0.90
2024-04-24T18:42:49.713Z,1.50
2024-04-24T18:45:16.335Z,1.10
2024-04-24T18:47:42.889Z,1.10
2024-04-24T18:50:09.791Z,0.90
2024-04-24T18:52:37.619Z,2.00
2024-04-24T18:55:05.355Z,0.90
2024-04-24T18:57:32.620Z,1.80
2024-04-24T18:59:59.570Z,1.30
2024-04-24T19:02:26.078Z,1.10
2024-04-24T19:04:52.496Z,0.80
2024-04-24T19:07:18.902Z,0.60
2024-04-24T19:09:45.266Z,0.90
2024-04-24T19:12:11.643Z,1.30
2024-04-24T19:14:38.057Z,1.20
2024-04-24T19:17:04.709Z,1.60
2024-04-24T19:19:31.162Z,0.30
2024-04-24T19:21:57.494Z,0.60
2024-04-24T19:24:24.511Z,0.70
2024-04-24T19:26:50.944Z,1.30
2024-04-24T19:29:17.428Z,0.60
2024-04-24T19:31:43.961Z,0.80
2024-04-24T19:34:10.456Z,0.50
2024-04-24T19:36:36.870Z,0.80
2024-04-24T19:39:03.618Z,1.70
2024-04-24T19:41:29.976Z,1.40
2024-04-24T19:43:56.385Z,0.80
2024-04-24T19:46:22.755Z,0.60
2024-04-24T19:48:52.562Z,0.90
2024-04-24T19:51:18.875Z,0.40
2024-04-24T19:53:45.289Z,1.00
2024-04-24T19:56:11.848Z,2.80
2024-04-24T19:58:38.352Z,0.80
2024-04-24T20:01:09.830Z,0.90
2024-04-24T20:03:37.196Z,1.00
2024-04-24T20:06:05.619Z,0.50
2024-04-24T20:08:32.774Z,0.80
2024-04-24T20:11:03.133Z,0.80
2024-04-24T20:13:29.709Z,0.60
2024-04-24T20:16:05.674Z,1.10
2024-04-24T20:18:37.853Z,1.30
2024-04-24T20:21:05.467Z,1.40
2024-04-24T20:23:32.093Z,1.00
2024-04-24T20:25:58.603Z,1.20
2024-04-24T20:28:24.974Z,1.00
2024-04-24T20:30:51.581Z,1.00
2024-04-24T20:33:18.122Z,1.20
2024-04-24T20:35:44.779Z,0.80
2024-04-24T20:38:12.113Z,1.70
2024-04-24T20:40:38.626Z,2.40
2024-04-24T20:43:05.020Z,4.50
2024-04-24T20:45:31.394Z,3.60
2024-04-24T20:47:57.897Z,1.80
2024-04-24T20:50:24.364Z,1.50
2024-04-24T20:52:50.725Z,2.10
2024-04-24T20:55:17.254Z,2.40
2024-04-24T20:57:43.760Z,1.90
2024-04-24T21:00:12.692Z,2.20
2024-04-24T21:02:39.357Z,2.20
2024-04-24T21:05:05.925Z,2.20
2024-04-24T21:07:32.346Z,1.60
2024-04-24T21:09:58.730Z,1.20
2024-04-24T21:12:25.089Z,3.20
2024-04-24T21:14:52.741Z,1.70
2024-04-24T21:17:19.163Z,9.50
2024-04-24T21:19:45.691Z,1.80
2024-04-24T21:22:12.048Z,1.20
2024-04-24T21:24:38.512Z,1.00
2024-04-24T21:27:05.037Z,2.80
2024-04-24T21:29:31.503Z,1.60
2024-04-24T21:31:58.064Z,3.60
2024-04-24T21:34:24.532Z,1.70
2024-04-24T21:36:50.987Z,3.40
2024-04-24T21:39:17.304Z,1.90
2024-04-24T21:41:44.761Z,1.60
2024-04-24T21:46:37.849Z,3.90
2024-04-24T21:49:04.550Z,2.50
2024-04-24T21:51:30.889Z,1.90
2024-04-24T21:53:58.308Z,1.70
2024-04-24T21:56:25.109Z,1.70
2024-04-24T21:58:54.691Z,1.50
2024-04-24T22:01:20.988Z,0.60
2024-04-24T22:03:48.339Z,1.50
2024-04-24T22:06:19.178Z,2.60
2024-04-24T22:08:47.092Z,1.40
2024-04-24T22:11:13.511Z,1.50
2024-04-24T22:13:39.950Z,0.80
2024-04-24T22:16:06.847Z,2.00
2024-04-24T22:18:34.807Z,1.90
2024-04-24T22:21:01.862Z,2.70
2024-04-24T22:23:28.464Z,0.90
2024-04-24T22:25:54.816Z,0.70
2024-04-24T22:28:21.237Z,1.50
2024-04-24T22:30:48.351Z,1.30
2024-04-24T22:33:15.126Z,2.00
2024-04-24T22:35:41.608Z,1.90
2024-04-24T22:38:09.282Z,1.90
2024-04-24T22:40:35.657Z,1.50
2024-04-24T22:43:02.048Z,1.70
2024-04-24T22:45:28.822Z,1.40
2024-04-24T22:47:55.439Z,1.50
2024-04-24T22:50:22.027Z,1.20
2024-04-24T22:52:48.756Z,1.30
2024-04-24T22:55:15.089Z,2.20
2024-04-24T22:57:41.491Z,2.00
2024-04-24T23:00:15.765Z,2.00
2024-04-24T23:02:42.198Z,0.90
2024-04-24T23:05:08.731Z,0.80
2024-04-24T23:07:35.080Z,1.70
2024-04-24T23:10:01.526Z,1.10
2024-04-24T23:12:27.903Z,1.40
2024-04-24T23:14:54.595Z,1.40
2024-04-24T23:17:20.954Z,2.20
2024-04-24T23:19:47.385Z,1.10
2024-04-24T23:22:13.714Z,1.40
2024-04-24T23:24:40.035Z,1.40
2024-04-24T23:27:06.396Z,1.10
2024-04-24T23:29:34.337Z,1.70
2024-04-24T23:32:00.748Z,1.40
2024-04-24T23:34:27.173Z,1.70
2024-04-24T23:36:53.470Z,1.90
2024-04-24T23:39:19.770Z,1.40
2024-04-24T23:41:46.071Z,1.10
2024-04-24T23:44:12.476Z,1.00
2024-04-24T23:46:38.969Z,2.20
2024-04-24T23:49:05.930Z,1.20
2024-04-24T23:51:32.774Z,1.00
2024-04-24T23:53:59.066Z,2.40
2024-04-24T23:56:25.434Z,1.60
2024-04-24T23:58:52.718Z,1.20
